ΕΜΥ, Εθνική Μετεωρολογική Υπηρεσία - Δελτία Καιρού, Προγνώσεις

ΑΕΡΟΝΑΥΤΙΛΙΑ

GREEK AIRPORTS CODES

LGTT 212130Z AUTO 02005KT //// -RA ////// 14/13 Q1013 RE// RMK 0.8MM=

EUROPEAN AIRPORTS CODES

TAF LGTT 211000Z 2112/2121 20010KT 9999 FEW018 SCT025 PROB40 TEMPO 2112/2121 5000 RA SCT012 FEW018TCU BKN025 PROB30 TEMPO 2112/2121 4000 TSRA SCT010 FEW018CB BKN020=